sensor_id;sensor_type;location;lat;lon;timestamp;P1;durP1;ratioP1;P2;durP2;ratioP2
946;SDS011;460;48.734;9.152;2024-01-27T00:00:48;7.47;;;2.92;;
946;SDS011;460;48.734;9.152;2024-01-27T00:03:17;5.28;;;3.42;;
946;SDS011;460;48.734;9.152;2024-01-27T00:05:43;6.25;;;3.15;;
946;SDS011;460;48.734;9.152;2024-01-27T00:08:10;8.27;;;2.80;;
946;SDS011;460;48.734;9.152;2024-01-27T00:10:37;4.13;;;3.30;;
946;SDS011;460;48.734;9.152;2024-01-27T00:13:05;8.32;;;3.17;;
946;SDS011;460;48.734;9.152;2024-01-27T00:15:32;5.93;;;2.45;;
946;SDS011;460;48.734;9.152;2024-01-27T00:17:59;3.70;;;3.15;;
946;SDS011;460;48.734;9.152;2024-01-27T00:20:26;4.40;;;2.28;;
946;SDS011;460;48.734;9.152;2024-01-27T00:22:53;3.78;;;3.45;;
946;SDS011;460;48.734;9.152;2024-01-27T00:25:19;4.82;;;3.70;;
946;SDS011;460;48.734;9.152;2024-01-27T00:27:46;3.80;;;3.20;;
946;SDS011;460;48.734;9.152;2024-01-27T00:30:14;4.17;;;2.93;;
946;SDS011;460;48.734;9.152;2024-01-27T00:32:40;3.33;;;3.03;;
946;SDS011;460;48.734;9.152;2024-01-27T00:35:07;3.10;;;2.42;;
946;SDS011;460;48.734;9.152;2024-01-27T00:37:36;5.10;;;3.70;;
946;SDS011;460;48.734;9.152;2024-01-27T00:40:03;3.47;;;3.17;;
946;SDS011;460;48.734;9.152;2024-01-27T00:42:33;4.32;;;3.42;;
946;SDS011;460;48.734;9.152;2024-01-27T00:44:59;5.93;;;4.32;;
946;SDS011;460;48.734;9.152;2024-01-27T00:47:28;5.93;;;3.65;;
946;SDS011;460;48.734;9.152;2024-01-27T00:49:54;4.82;;;3.70;;
946;SDS011;460;48.734;9.152;2024-01-27T00:52:21;5.93;;;3.50;;
946;SDS011;460;48.734;9.152;2024-01-27T00:54:48;5.35;;;3.50;;
946;SDS011;460;48.734;9.152;2024-01-27T00:57:15;5.38;;;3.40;;
946;SDS011;460;48.734;9.152;2024-01-27T00:59:42;10.10;;;4.03;;
946;SDS011;460;48.734;9.152;2024-01-27T01:02:09;5.32;;;3.67;;
946;SDS011;460;48.734;9.152;2024-01-27T01:04:38;3.95;;;3.60;;
946;SDS011;460;48.734;9.152;2024-01-27T01:07:06;6.80;;;3.08;;
946;SDS011;460;48.734;9.152;2024-01-27T01:09:33;3.85;;;3.55;;
946;SDS011;460;48.734;9.152;2024-01-27T01:12:01;7.32;;;3.58;;
946;SDS011;460;48.734;9.152;2024-01-27T01:14:30;4.68;;;3.55;;
946;SDS011;460;48.734;9.152;2024-01-27T01:16:57;9.35;;;4.40;;
946;SDS011;460;48.734;9.152;2024-01-27T01:19:23;4.80;;;3.58;;
946;SDS011;460;48.734;9.152;2024-01-27T01:21:53;7.00;;;3.38;;
946;SDS011;460;48.734;9.152;2024-01-27T01:24:19;5.05;;;4.35;;
946;SDS011;460;48.734;9.152;2024-01-27T01:26:46;5.97;;;4.10;;
946;SDS011;460;48.734;9.152;2024-01-27T01:29:13;6.32;;;3.85;;
946;SDS011;460;48.734;9.152;2024-01-27T01:31:41;4.55;;;4.10;;
946;SDS011;460;48.734;9.152;2024-01-27T01:34:08;5.10;;;4.30;;
946;SDS011;460;48.734;9.152;2024-01-27T01:36:34;4.05;;;3.47;;
946;SDS011;460;48.734;9.152;2024-01-27T01:39:04;7.47;;;4.88;;
946;SDS011;460;48.734;9.152;2024-01-27T01:41:31;5.60;;;4.30;;
946;SDS011;460;48.734;9.152;2024-01-27T01:43:57;7.30;;;4.72;;
946;SDS011;460;48.734;9.152;2024-01-27T01:46:24;4.95;;;4.32;;
946;SDS011;460;48.734;9.152;2024-01-27T01:48:51;8.63;;;4.32;;
946;SDS011;460;48.734;9.152;2024-01-27T01:51:18;5.57;;;3.85;;
946;SDS011;460;48.734;9.152;2024-01-27T01:53:45;5.10;;;4.63;;
946;SDS011;460;48.734;9.152;2024-01-27T01:56:16;7.88;;;4.68;;
946;SDS011;460;48.734;9.152;2024-01-27T01:58:59;4.63;;;4.20;;
946;SDS011;460;48.734;9.152;2024-01-27T02:01:26;7.50;;;4.47;;
946;SDS011;460;48.734;9.152;2024-01-27T02:03:53;5.25;;;4.38;;
946;SDS011;460;48.734;9.152;2024-01-27T02:06:20;6.95;;;4.90;;
946;SDS011;460;48.734;9.152;2024-01-27T02:08:47;5.80;;;3.45;;
946;SDS011;460;48.734;9.152;2024-01-27T02:11:14;6.07;;;3.80;;
946;SDS011;460;48.734;9.152;2024-01-27T02:13:43;4.60;;;4.15;;
946;SDS011;460;48.734;9.152;2024-01-27T02:16:11;7.88;;;4.50;;
946;SDS011;460;48.734;9.152;2024-01-27T02:18:39;7.00;;;4.53;;
946;SDS011;460;48.734;9.152;2024-01-27T02:21:06;5.32;;;4.43;;
946;SDS011;460;48.734;9.152;2024-01-27T02:23:33;4.90;;;4.40;;
946;SDS011;460;48.734;9.152;2024-01-27T02:26:02;6.80;;;5.07;;
946;SDS011;460;48.734;9.152;2024-01-27T02:28:30;5.00;;;4.05;;
946;SDS011;460;48.734;9.152;2024-01-27T02:30:59;8.55;;;4.60;;
946;SDS011;460;48.734;9.152;2024-01-27T02:33:26;6.40;;;4.13;;
946;SDS011;460;48.734;9.152;2024-01-27T02:35:54;5.22;;;3.67;;
946;SDS011;460;48.734;9.152;2024-01-27T02:38:21;3.80;;;3.30;;
946;SDS011;460;48.734;9.152;2024-01-27T02:40:48;4.55;;;3.90;;
946;SDS011;460;48.734;9.152;2024-01-27T02:43:16;7.25;;;4.57;;
946;SDS011;460;48.734;9.152;2024-01-27T02:45:43;4.63;;;4.18;;
946;SDS011;460;48.734;9.152;2024-01-27T02:48:10;4.53;;;4.05;;
946;SDS011;460;48.734;9.152;2024-01-27T02:50:37;5.13;;;3.97;;
946;SDS011;460;48.734;9.152;2024-01-27T02:53:04;5.45;;;4.25;;
946;SDS011;460;48.734;9.152;2024-01-27T02:55:31;4.93;;;3.30;;
946;SDS011;460;48.734;9.152;2024-01-27T02:57:59;7.50;;;4.32;;
946;SDS011;460;48.734;9.152;2024-01-27T03:00:28;13.52;;;3.95;;
946;SDS011;460;48.734;9.152;2024-01-27T03:02:55;6.18;;;4.05;;
946;SDS011;460;48.734;9.152;2024-01-27T03:05:24;5.82;;;4.30;;
946;SDS011;460;48.734;9.152;2024-01-27T03:07:52;7.50;;;4.35;;
946;SDS011;460;48.734;9.152;2024-01-27T03:10:19;5.40;;;4.63;;
946;SDS011;460;48.734;9.152;2024-01-27T03:12:47;6.45;;;4.20;;
946;SDS011;460;48.734;9.152;2024-01-27T03:15:15;10.68;;;4.22;;
946;SDS011;460;48.734;9.152;2024-01-27T03:17:44;5.35;;;4.82;;
946;SDS011;460;48.734;9.152;2024-01-27T03:20:11;5.55;;;5.05;;
946;SDS011;460;48.734;9.152;2024-01-27T03:22:38;4.13;;;3.83;;
946;SDS011;460;48.734;9.152;2024-01-27T03:25:09;6.93;;;4.03;;
946;SDS011;460;48.734;9.152;2024-01-27T03:27:38;5.65;;;4.10;;
946;SDS011;460;48.734;9.152;2024-01-27T03:30:07;4.40;;;3.45;;
946;SDS011;460;48.734;9.152;2024-01-27T03:32:35;5.90;;;2.75;;
946;SDS011;460;48.734;9.152;2024-01-27T03:35:04;5.70;;;3.25;;
946;SDS011;460;48.734;9.152;2024-01-27T03:37:32;8.35;;;3.45;;
946;SDS011;460;48.734;9.152;2024-01-27T03:40:01;3.50;;;2.95;;
946;SDS011;460;48.734;9.152;2024-01-27T03:42:28;5.20;;;2.90;;
946;SDS011;460;48.734;9.152;2024-01-27T03:44:56;4.32;;;2.75;;
946;SDS011;460;48.734;9.152;2024-01-27T03:47:24;4.22;;;3.50;;
946;SDS011;460;48.734;9.152;2024-01-27T03:49:51;3.67;;;3.22;;
946;SDS011;460;48.734;9.152;2024-01-27T03:52:20;5.32;;;3.83;;
946;SDS011;460;48.734;9.152;2024-01-27T03:54:46;3.55;;;2.53;;
946;SDS011;460;48.734;9.152;2024-01-27T03:57:13;4.18;;;3.55;;
946;SDS011;460;48.734;9.152;2024-01-27T03:59:40;3.88;;;3.35;;
946;SDS011;460;48.734;9.152;2024-01-27T04:02:07;6.28;;;3.90;;
946;SDS011;460;48.734;9.152;2024-01-27T04:04:34;3.65;;;3.20;;
946;SDS011;460;48.734;9.152;2024-01-27T04:07:00;4.00;;;3.50;;
946;SDS011;460;48.734;9.152;2024-01-27T04:09:29;4.07;;;3.58;;
946;SDS011;460;48.734;9.152;2024-01-27T04:11:55;4.60;;;3.53;;
946;SDS011;460;48.734;9.152;2024-01-27T04:14:22;5.10;;;3.47;;
946;SDS011;460;48.734;9.152;2024-01-27T04:16:49;4.85;;;3.67;;
946;SDS011;460;48.734;9.152;2024-01-27T04:19:16;9.02;;;3.90;;
946;SDS011;460;48.734;9.152;2024-01-27T04:21:43;5.07;;;3.80;;
946;SDS011;460;48.734;9.152;2024-01-27T04:24:09;3.22;;;2.92;;
946;SDS011;460;48.734;9.152;2024-01-27T04:26:37;3.72;;;3.03;;
946;SDS011;460;48.734;9.152;2024-01-27T04:29:04;4.32;;;3.70;;
946;SDS011;460;48.734;9.152;2024-01-27T04:31:31;4.00;;;3.20;;
946;SDS011;460;48.734;9.152;2024-01-27T04:33:58;3.33;;;3.03;;
946;SDS011;460;48.734;9.152;2024-01-27T04:36:25;8.02;;;3.33;;
946;SDS011;460;48.734;9.152;2024-01-27T04:38:53;5.90;;;4.00;;
946;SDS011;460;48.734;9.152;2024-01-27T04:41:19;4.70;;;3.75;;
946;SDS011;460;48.734;9.152;2024-01-27T04:43:48;4.55;;;3.55;;
946;SDS011;460;48.734;9.152;2024-01-27T04:46:15;5.43;;;3.97;;
946;SDS011;460;48.734;9.152;2024-01-27T04:48:42;4.30;;;3.53;;
946;SDS011;460;48.734;9.152;2024-01-27T04:51:08;5.85;;;3.30;;
946;SDS011;460;48.734;9.152;2024-01-27T04:53:35;4.53;;;3.42;;
946;SDS011;460;48.734;9.152;2024-01-27T04:56:02;4.55;;;4.13;;
946;SDS011;460;48.734;9.152;2024-01-27T04:58:32;5.68;;;4.43;;
946;SDS011;460;48.734;9.152;2024-01-27T05:01:01;11.20;;;5.13;;
946;SDS011;460;48.734;9.152;2024-01-27T05:03:27;6.63;;;4.07;;
946;SDS011;460;48.734;9.152;2024-01-27T05:05:54;6.30;;;4.38;;
946;SDS011;460;48.734;9.152;2024-01-27T05:08:21;5.45;;;4.85;;
946;SDS011;460;48.734;9.152;2024-01-27T05:10:48;5.35;;;4.35;;
946;SDS011;460;48.734;9.152;2024-01-27T05:13:15;4.68;;;3.35;;
946;SDS011;460;48.734;9.152;2024-01-27T05:15:41;3.92;;;3.50;;
946;SDS011;460;48.734;9.152;2024-01-27T05:18:10;4.15;;;3.75;;
946;SDS011;460;48.734;9.152;2024-01-27T05:20:36;6.60;;;4.05;;
946;SDS011;460;48.734;9.152;2024-01-27T05:23:03;4.10;;;3.67;;
946;SDS011;460;48.734;9.152;2024-01-27T05:25:30;3.47;;;3.17;;
946;SDS011;460;48.734;9.152;2024-01-27T05:27:57;5.93;;;3.20;;
946;SDS011;460;48.734;9.152;2024-01-27T05:30:24;3.10;;;2.80;;
946;SDS011;460;48.734;9.152;2024-01-27T05:32:50;16.13;;;4.65;;
946;SDS011;460;48.734;9.152;2024-01-27T05:35:18;6.45;;;3.20;;
946;SDS011;460;48.734;9.152;2024-01-27T05:37:45;5.90;;;4.20;;
946;SDS011;460;48.734;9.152;2024-01-27T05:40:12;4.72;;;3.95;;
946;SDS011;460;48.734;9.152;2024-01-27T05:42:40;3.78;;;3.47;;
946;SDS011;460;48.734;9.152;2024-01-27T05:45:08;4.50;;;3.88;;
946;SDS011;460;48.734;9.152;2024-01-27T05:47:35;6.97;;;3.95;;
946;SDS011;460;48.734;9.152;2024-01-27T05:50:02;5.32;;;4.47;;
946;SDS011;460;48.734;9.152;2024-01-27T05:52:31;9.98;;;4.35;;
946;SDS011;460;48.734;9.152;2024-01-27T05:54:58;4.65;;;4.25;;
946;SDS011;460;48.734;9.152;2024-01-27T05:57:25;4.35;;;3.95;;
946;SDS011;460;48.734;9.152;2024-01-27T05:59:51;4.70;;;4.00;;
946;SDS011;460;48.734;9.152;2024-01-27T06:02:19;6.75;;;3.88;;
946;SDS011;460;48.734;9.152;2024-01-27T06:04:46;6.55;;;4.10;;
946;SDS011;460;48.734;9.152;2024-01-27T06:07:12;5.65;;;4.50;;
946;SDS011;460;48.734;9.152;2024-01-27T06:09:40;4.28;;;3.88;;
946;SDS011;460;48.734;9.152;2024-01-27T06:12:07;5.65;;;3.20;;
946;SDS011;460;48.734;9.152;2024-01-27T06:14:34;4.80;;;4.40;;
946;SDS011;460;48.734;9.152;2024-01-27T06:17:01;9.88;;;4.65;;
946;SDS011;460;48.734;9.152;2024-01-27T06:19:29;4.65;;;4.25;;
946;SDS011;460;48.734;9.152;2024-01-27T06:21:56;5.75;;;3.90;;
946;SDS011;460;48.734;9.152;2024-01-27T06:24:23;5.97;;;4.15;;
946;SDS011;460;48.734;9.152;2024-01-27T06:26:51;8.18;;;4.13;;
946;SDS011;460;48.734;9.152;2024-01-27T06:29:18;4.70;;;3.97;;
946;SDS011;460;48.734;9.152;2024-01-27T06:31:45;9.25;;;4.88;;
946;SDS011;460;48.734;9.152;2024-01-27T06:34:11;6.30;;;4.45;;
946;SDS011;460;48.734;9.152;2024-01-27T06:36:38;8.00;;;4.90;;
946;SDS011;460;48.734;9.152;2024-01-27T06:39:05;6.40;;;3.65;;
946;SDS011;460;48.734;9.152;2024-01-27T06:41:33;4.72;;;3.92;;
946;SDS011;460;48.734;9.152;2024-01-27T06:44:02;5.95;;;4.20;;
946;SDS011;460;48.734;9.152;2024-01-27T06:46:29;4.22;;;3.83;;
946;SDS011;460;48.734;9.152;2024-01-27T06:48:56;6.35;;;4.00;;
946;SDS011;460;48.734;9.152;2024-01-27T06:51:22;5.57;;;4.00;;
946;SDS011;460;48.734;9.152;2024-01-27T06:53:49;8.90;;;5.10;;
946;SDS011;460;48.734;9.152;2024-01-27T06:56:16;10.50;;;4.25;;
946;SDS011;460;48.734;9.152;2024-01-27T06:58:43;4.07;;;3.42;;
946;SDS011;460;48.734;9.152;2024-01-27T07:01:11;7.00;;;3.80;;
946;SDS011;460;48.734;9.152;2024-01-27T07:03:37;3.42;;;3.13;;
946;SDS011;460;48.734;9.152;2024-01-27T07:06:05;5.65;;;4.10;;
946;SDS011;460;48.734;9.152;2024-01-27T07:08:31;5.15;;;3.10;;
946;SDS011;460;48.734;9.152;2024-01-27T07:10:58;4.03;;;3.63;;
946;SDS011;460;48.734;9.152;2024-01-27T07:13:25;6.00;;;4.32;;
946;SDS011;460;48.734;9.152;2024-01-27T07:15:54;6.07;;;4.40;;
946;SDS011;460;48.734;9.152;2024-01-27T07:18:22;4.45;;;3.97;;
946;SDS011;460;48.734;9.152;2024-01-27T07:20:50;8.52;;;4.85;;
946;SDS011;460;48.734;9.152;2024-01-27T07:23:17;4.68;;;3.30;;
946;SDS011;460;48.734;9.152;2024-01-27T07:25:44;11.68;;;4.53;;
946;SDS011;460;48.734;9.152;2024-01-27T07:28:11;7.30;;;4.30;;
946;SDS011;460;48.734;9.152;2024-01-27T07:30:40;10.90;;;4.50;;
946;SDS011;460;48.734;9.152;2024-01-27T07:33:07;5.57;;;4.00;;
946;SDS011;460;48.734;9.152;2024-01-27T07:35:35;4.07;;;3.65;;
946;SDS011;460;48.734;9.152;2024-01-27T07:38:02;4.18;;;3.40;;
946;SDS011;460;48.734;9.152;2024-01-27T07:40:29;6.15;;;3.92;;
946;SDS011;460;48.734;9.152;2024-01-27T07:42:55;7.90;;;4.97;;
946;SDS011;460;48.734;9.152;2024-01-27T07:45:22;4.10;;;3.70;;
946;SDS011;460;48.734;9.152;2024-01-27T07:47:49;8.35;;;4.55;;
946;SDS011;460;48.734;9.152;2024-01-27T07:50:16;9.00;;;5.45;;
946;SDS011;460;48.734;9.152;2024-01-27T07:52:44;5.53;;;3.92;;
946;SDS011;460;48.734;9.152;2024-01-27T07:55:10;11.30;;;5.68;;
946;SDS011;460;48.734;9.152;2024-01-27T07:57:37;7.05;;;4.85;;
946;SDS011;460;48.734;9.152;2024-01-27T08:00:04;7.35;;;5.18;;
946;SDS011;460;48.734;9.152;2024-01-27T08:02:32;7.78;;;5.30;;
946;SDS011;460;48.734;9.152;2024-01-27T08:04:59;8.10;;;5.55;;
946;SDS011;460;48.734;9.152;2024-01-27T08:07:26;7.50;;;5.78;;
946;SDS011;460;48.734;9.152;2024-01-27T08:09:54;6.57;;;5.63;;
946;SDS011;460;48.734;9.152;2024-01-27T08:12:21;11.02;;;6.40;;
946;SDS011;460;48.734;9.152;2024-01-27T08:14:48;16.00;;;6.38;;
946;SDS011;460;48.734;9.152;2024-01-27T08:17:15;7.57;;;5.85;;
946;SDS011;460;48.734;9.152;2024-01-27T08:19:42;6.93;;;5.80;;
946;SDS011;460;48.734;9.152;2024-01-27T08:22:08;6.38;;;5.05;;
946;SDS011;460;48.734;9.152;2024-01-27T08:24:35;8.57;;;5.32;;
946;SDS011;460;48.734;9.152;2024-01-27T08:27:04;11.43;;;6.20;;
946;SDS011;460;48.734;9.152;2024-01-27T08:29:31;7.20;;;6.18;;
946;SDS011;460;48.734;9.152;2024-01-27T08:31:58;5.22;;;4.72;;
946;SDS011;460;48.734;9.152;2024-01-27T08:34:24;8.25;;;7.32;;
946;SDS011;460;48.734;9.152;2024-01-27T08:36:51;7.82;;;7.07;;
946;SDS011;460;48.734;9.152;2024-01-27T08:39:18;8.05;;;6.18;;
946;SDS011;460;48.734;9.152;2024-01-27T08:41:45;8.95;;;6.28;;
946;SDS011;460;48.734;9.152;2024-01-27T08:44:13;10.20;;;6.05;;
946;SDS011;460;48.734;9.152;2024-01-27T08:46:40;7.45;;;5.07;;
946;SDS011;460;48.734;9.152;2024-01-27T08:49:07;5.82;;;4.95;;
946;SDS011;460;48.734;9.152;2024-01-27T08:51:34;11.00;;;6.35;;
946;SDS011;460;48.734;9.152;2024-01-27T08:54:00;7.68;;;6.03;;
946;SDS011;460;48.734;9.152;2024-01-27T08:56:27;6.35;;;4.95;;
946;SDS011;460;48.734;9.152;2024-01-27T08:58:54;5.97;;;5.25;;
946;SDS011;460;48.734;9.152;2024-01-27T09:01:22;7.00;;;6.25;;
946;SDS011;460;48.734;9.152;2024-01-27T09:03:49;6.55;;;5.72;;
946;SDS011;460;48.734;9.152;2024-01-27T09:06:16;7.75;;;5.55;;
946;SDS011;460;48.734;9.152;2024-01-27T09:08:43;9.68;;;6.45;;
946;SDS011;460;48.734;9.152;2024-01-27T09:11:11;8.60;;;6.35;;
946;SDS011;460;48.734;9.152;2024-01-27T09:13:37;14.40;;;6.45;;
946;SDS011;460;48.734;9.152;2024-01-27T09:16:04;11.00;;;7.00;;
946;SDS011;460;48.734;9.152;2024-01-27T09:18:34;7.97;;;6.05;;
946;SDS011;460;48.734;9.152;2024-01-27T09:21:00;12.18;;;6.25;;
946;SDS011;460;48.734;9.152;2024-01-27T09:23:27;6.82;;;5.85;;
946;SDS011;460;48.734;9.152;2024-01-27T09:25:54;8.93;;;6.70;;
946;SDS011;460;48.734;9.152;2024-01-27T09:28:21;8.60;;;6.90;;
946;SDS011;460;48.734;9.152;2024-01-27T09:30:48;9.07;;;6.40;;
946;SDS011;460;48.734;9.152;2024-01-27T09:33:15;6.85;;;6.20;;
946;SDS011;460;48.734;9.152;2024-01-27T09:35:46;7.18;;;6.38;;
946;SDS011;460;48.734;9.152;2024-01-27T09:38:12;9.23;;;5.80;;
946;SDS011;460;48.734;9.152;2024-01-27T09:40:39;6.95;;;5.65;;
946;SDS011;460;48.734;9.152;2024-01-27T09:43:06;9.23;;;6.70;;
946;SDS011;460;48.734;9.152;2024-01-27T09:45:38;7.20;;;5.72;;
946;SDS011;460;48.734;9.152;2024-01-27T09:48:06;9.60;;;6.10;;
946;SDS011;460;48.734;9.152;2024-01-27T09:50:37;11.93;;;6.90;;
946;SDS011;460;48.734;9.152;2024-01-27T09:53:06;5.55;;;4.95;;
946;SDS011;460;48.734;9.152;2024-01-27T09:55:34;6.55;;;3.97;;
946;SDS011;460;48.734;9.152;2024-01-27T09:58:01;5.97;;;4.30;;
946;SDS011;460;48.734;9.152;2024-01-27T10:00:29;3.42;;;3.13;;
946;SDS011;460;48.734;9.152;2024-01-27T10:02:57;9.15;;;3.50;;
946;SDS011;460;48.734;9.152;2024-01-27T10:05:24;6.25;;;3.63;;
946;SDS011;460;48.734;9.152;2024-01-27T10:07:52;10.23;;;3.78;;
946;SDS011;460;48.734;9.152;2024-01-27T10:10:20;9.07;;;3.50;;
946;SDS011;460;48.734;9.152;2024-01-27T10:12:47;6.20;;;3.90;;
946;SDS011;460;48.734;9.152;2024-01-27T10:15:18;5.15;;;3.80;;
946;SDS011;460;48.734;9.152;2024-01-27T10:17:45;8.98;;;3.83;;
946;SDS011;460;48.734;9.152;2024-01-27T10:20:12;4.40;;;3.97;;
946;SDS011;460;48.734;9.152;2024-01-27T10:22:43;6.25;;;3.88;;
946;SDS011;460;48.734;9.152;2024-01-27T10:25:11;9.10;;;3.95;;
946;SDS011;460;48.734;9.152;2024-01-27T10:27:39;4.20;;;3.65;;
946;SDS011;460;48.734;9.152;2024-01-27T10:30:08;8.90;;;4.00;;
946;SDS011;460;48.734;9.152;2024-01-27T10:32:54;4.90;;;3.72;;
946;SDS011;460;48.734;9.152;2024-01-27T10:35:21;5.70;;;3.20;;
946;SDS011;460;48.734;9.152;2024-01-27T10:37:51;5.82;;;3.63;;
946;SDS011;460;48.734;9.152;2024-01-27T10:40:19;4.22;;;2.80;;
946;SDS011;460;48.734;9.152;2024-01-27T10:42:48;5.13;;;3.40;;
946;SDS011;460;48.734;9.152;2024-01-27T10:45:25;11.15;;;3.38;;
946;SDS011;460;48.734;9.152;2024-01-27T10:47:54;3.70;;;3.35;;
946;SDS011;460;48.734;9.152;2024-01-27T10:50:25;6.22;;;3.25;;
946;SDS011;460;48.734;9.152;2024-01-27T10:52:55;7.78;;;4.57;;
946;SDS011;460;48.734;9.152;2024-01-27T10:55:24;8.32;;;4.18;;
946;SDS011;460;48.734;9.152;2024-01-27T10:57:53;9.60;;;3.83;;
946;SDS011;460;48.734;9.152;2024-01-27T11:00:21;5.22;;;3.78;;
946;SDS011;460;48.734;9.152;2024-01-27T11:02:50;6.13;;;3.92;;
946;SDS011;460;48.734;9.152;2024-01-27T11:05:19;4.97;;;3.90;;
946;SDS011;460;48.734;9.152;2024-01-27T11:07:47;8.88;;;3.55;;
946;SDS011;460;48.734;9.152;2024-01-27T11:10:16;4.95;;;3.28;;
946;SDS011;460;48.734;9.152;2024-01-27T11:12:43;7.00;;;4.35;;
946;SDS011;460;48.734;9.152;2024-01-27T11:15:12;14.35;;;4.40;;
946;SDS011;460;48.734;9.152;2024-01-27T11:17:39;4.68;;;4.20;;
946;SDS011;460;48.734;9.152;2024-01-27T11:20:07;7.22;;;4.38;;
946;SDS011;460;48.734;9.152;2024-01-27T11:22:36;10.27;;;4.60;;
946;SDS011;460;48.734;9.152;2024-01-27T11:25:08;5.72;;;4.30;;
946;SDS011;460;48.734;9.152;2024-01-27T11:27:41;6.80;;;3.97;;
946;SDS011;460;48.734;9.152;2024-01-27T11:30:25;9.20;;;5.97;;
946;SDS011;460;48.734;9.152;2024-01-27T11:32:54;5.78;;;5.07;;
946;SDS011;460;48.734;9.152;2024-01-27T11:35:22;10.88;;;5.13;;
946;SDS011;460;48.734;9.152;2024-01-27T11:37:49;7.70;;;5.20;;
946;SDS011;460;48.734;9.152;2024-01-27T11:40:16;8.25;;;5.45;;
946;SDS011;460;48.734;9.152;2024-01-27T11:42:42;9.15;;;5.22;;
946;SDS011;460;48.734;9.152;2024-01-27T11:45:09;6.40;;;4.35;;
946;SDS011;460;48.734;9.152;2024-01-27T11:47:38;11.38;;;5.63;;
946;SDS011;460;48.734;9.152;2024-01-27T11:50:05;10.32;;;4.55;;
946;SDS011;460;48.734;9.152;2024-01-27T11:52:33;4.97;;;4.47;;
946;SDS011;460;48.734;9.152;2024-01-27T11:55:01;8.00;;;5.30;;
946;SDS011;460;48.734;9.152;2024-01-27T11:57:28;6.28;;;4.53;;
946;SDS011;460;48.734;9.152;2024-01-27T11:59:55;8.27;;;3.78;;
946;SDS011;460;48.734;9.152;2024-01-27T12:02:22;7.13;;;4.28;;
946;SDS011;460;48.734;9.152;2024-01-27T12:04:51;4.80;;;4.30;;
946;SDS011;460;48.734;9.152;2024-01-27T12:07:18;8.95;;;4.03;;
946;SDS011;460;48.734;9.152;2024-01-27T12:09:46;11.27;;;4.82;;
946;SDS011;460;48.734;9.152;2024-01-27T12:12:14;9.95;;;3.60;;
946;SDS011;460;48.734;9.152;2024-01-27T12:14:44;7.60;;;4.65;;
946;SDS011;460;48.734;9.152;2024-01-27T12:17:12;8.35;;;5.68;;
946;SDS011;460;48.734;9.152;2024-01-27T12:19:39;6.70;;;4.60;;
946;SDS011;460;48.734;9.152;2024-01-27T12:22:21;5.75;;;3.92;;
946;SDS011;460;48.734;9.152;2024-01-27T12:24:50;9.80;;;4.18;;
946;SDS011;460;48.734;9.152;2024-01-27T12:27:17;6.03;;;4.30;;
946;SDS011;460;48.734;9.152;2024-01-27T12:29:46;8.27;;;5.38;;
946;SDS011;460;48.734;9.152;2024-01-27T12:32:14;6.88;;;4.32;;
946;SDS011;460;48.734;9.152;2024-01-27T12:34:41;10.18;;;4.38;;
946;SDS011;460;48.734;9.152;2024-01-27T12:37:08;8.15;;;4.95;;
946;SDS011;460;48.734;9.152;2024-01-27T12:39:38;11.77;;;4.90;;
946;SDS011;460;48.734;9.152;2024-01-27T12:42:09;5.47;;;4.45;;
946;SDS011;460;48.734;9.152;2024-01-27T12:44:36;4.93;;;3.80;;
946;SDS011;460;48.734;9.152;2024-01-27T12:47:03;6.40;;;4.25;;
946;SDS011;460;48.734;9.152;2024-01-27T12:49:30;9.82;;;3.90;;
946;SDS011;460;48.734;9.152;2024-01-27T12:51:57;9.13;;;4.50;;
946;SDS011;460;48.734;9.152;2024-01-27T12:54:24;4.10;;;3.70;;
946;SDS011;460;48.734;9.152;2024-01-27T12:56:52;9.90;;;4.30;;
946;SDS011;460;48.734;9.152;2024-01-27T12:59:19;6.18;;;4.47;;
946;SDS011;460;48.734;9.152;2024-01-27T13:01:46;3.83;;;3.53;;
946;SDS011;460;48.734;9.152;2024-01-27T13:04:12;8.57;;;4.75;;
946;SDS011;460;48.734;9.152;2024-01-27T13:06:39;6.68;;;4.95;;
946;SDS011;460;48.734;9.152;2024-01-27T13:09:07;7.72;;;4.50;;
946;SDS011;460;48.734;9.152;2024-01-27T13:11:36;6.40;;;4.20;;
946;SDS011;460;48.734;9.152;2024-01-27T13:14:04;5.20;;;3.42;;
946;SDS011;460;48.734;9.152;2024-01-27T13:16:31;3.67;;;3.35;;
946;SDS011;460;48.734;9.152;2024-01-27T13:18:58;3.10;;;2.85;;
946;SDS011;460;48.734;9.152;2024-01-27T13:21:25;6.13;;;3.15;;
946;SDS011;460;48.734;9.152;2024-01-27T13:23:52;3.28;;;2.97;;
946;SDS011;460;48.734;9.152;2024-01-27T13:26:18;2.53;;;1.88;;
946;SDS011;460;48.734;9.152;2024-01-27T13:28:45;1.98;;;1.73;;
946;SDS011;460;48.734;9.152;2024-01-27T13:31:14;4.80;;;2.72;;
946;SDS011;460;48.734;9.152;2024-01-27T13:33:41;2.90;;;2.70;;
946;SDS011;460;48.734;9.152;2024-01-27T13:36:08;3.47;;;3.03;;
946;SDS011;460;48.734;9.152;2024-01-27T13:38:35;4.38;;;2.75;;
946;SDS011;460;48.734;9.152;2024-01-27T13:41:02;2.50;;;2.30;;
946;SDS011;460;48.734;9.152;2024-01-27T13:43:29;5.18;;;2.67;;
946;SDS011;460;48.734;9.152;2024-01-27T13:45:56;3.53;;;2.60;;
946;SDS011;460;48.734;9.152;2024-01-27T13:48:24;2.45;;;2.25;;
946;SDS011;460;48.734;9.152;2024-01-27T13:50:51;4.63;;;3.13;;
946;SDS011;460;48.734;9.152;2024-01-27T13:53:18;4.65;;;2.70;;
946;SDS011;460;48.734;9.152;2024-01-27T13:55:45;2.45;;;2.25;;
946;SDS011;460;48.734;9.152;2024-01-27T13:58:12;6.82;;;3.60;;
946;SDS011;460;48.734;9.152;2024-01-27T14:00:40;2.92;;;2.17;;
946;SDS011;460;48.734;9.152;2024-01-27T14:03:07;9.20;;;2.65;;
946;SDS011;460;48.734;9.152;2024-01-27T14:05:37;4.20;;;2.95;;
946;SDS011;460;48.734;9.152;2024-01-27T14:08:04;3.60;;;3.00;;
946;SDS011;460;48.734;9.152;2024-01-27T14:10:32;4.32;;;2.50;;
946;SDS011;460;48.734;9.152;2024-01-27T14:13:00;3.95;;;3.15;;
946;SDS011;460;48.734;9.152;2024-01-27T14:15:28;3.50;;;2.38;;
946;SDS011;460;48.734;9.152;2024-01-27T14:17:55;3.08;;;2.78;;
946;SDS011;460;48.734;9.152;2024-01-27T14:20:21;3.75;;;3.00;;
946;SDS011;460;48.734;9.152;2024-01-27T14:22:49;4.55;;;2.88;;
946;SDS011;460;48.734;9.152;2024-01-27T14:25:17;3.47;;;2.78;;
946;SDS011;460;48.734;9.152;2024-01-27T14:27:46;4.50;;;3.13;;
946;SDS011;460;48.734;9.152;2024-01-27T14:30:13;3.83;;;3.00;;
946;SDS011;460;48.734;9.152;2024-01-27T14:32:40;4.80;;;2.97;;
946;SDS011;460;48.734;9.152;2024-01-27T14:35:09;3.92;;;3.13;;
946;SDS011;460;48.734;9.152;2024-01-27T14:37:35;5.35;;;2.65;;
946;SDS011;460;48.734;9.152;2024-01-27T14:40:04;4.05;;;2.75;;
946;SDS011;460;48.734;9.152;2024-01-27T14:42:32;6.05;;;2.85;;
946;SDS011;460;48.734;9.152;2024-01-27T14:45:01;2.83;;;2.63;;
946;SDS011;460;48.734;9.152;2024-01-27T14:47:28;5.63;;;3.35;;
946;SDS011;460;48.734;9.152;2024-01-27T14:49:54;3.05;;;2.42;;
946;SDS011;460;48.734;9.152;2024-01-27T14:52:21;4.00;;;3.33;;
946;SDS011;460;48.734;9.152;2024-01-27T14:54:49;5.63;;;3.10;;
946;SDS011;460;48.734;9.152;2024-01-27T14:57:17;8.60;;;2.80;;
946;SDS011;460;48.734;9.152;2024-01-27T14:59:44;6.13;;;3.60;;
946;SDS011;460;48.734;9.152;2024-01-27T15:02:11;5.35;;;2.90;;
946;SDS011;460;48.734;9.152;2024-01-27T15:04:38;6.03;;;2.97;;
946;SDS011;460;48.734;9.152;2024-01-27T15:07:05;4.28;;;3.40;;
946;SDS011;460;48.734;9.152;2024-01-27T15:09:34;6.38;;;3.05;;
946;SDS011;460;48.734;9.152;2024-01-27T15:12:01;5.03;;;2.97;;
946;SDS011;460;48.734;9.152;2024-01-27T15:14:29;6.97;;;2.88;;
946;SDS011;460;48.734;9.152;2024-01-27T15:16:56;4.22;;;2.53;;
946;SDS011;460;48.734;9.152;2024-01-27T15:19:23;5.13;;;3.20;;
946;SDS011;460;48.734;9.152;2024-01-27T15:21:50;3.20;;;2.70;;
946;SDS011;460;48.734;9.152;2024-01-27T15:24:17;4.55;;;2.70;;
946;SDS011;460;48.734;9.152;2024-01-27T15:26:44;3.20;;;2.40;;
946;SDS011;460;48.734;9.152;2024-01-27T15:29:11;5.90;;;3.10;;
946;SDS011;460;48.734;9.152;2024-01-27T15:31:39;4.18;;;3.50;;
946;SDS011;460;48.734;9.152;2024-01-27T15:34:06;4.88;;;3.55;;
946;SDS011;460;48.734;9.152;2024-01-27T15:36:33;3.92;;;3.38;;
946;SDS011;460;48.734;9.152;2024-01-27T15:39:00;3.67;;;3.38;;
946;SDS011;460;48.734;9.152;2024-01-27T15:41:27;4.05;;;2.72;;
946;SDS011;460;48.734;9.152;2024-01-27T15:43:54;9.98;;;4.38;;
946;SDS011;460;48.734;9.152;2024-01-27T15:46:22;5.03;;;3.03;;